Time;durP1;ratioP1;P1;durP2;ratioP2;P2;SDS_P1;SDS_P2;PMS_P1;PMS_P2;Temp;Humidity;BMP_temperature;BMP_pressure;BME280_temperature;BME280_humidity;BME280_pressure;Samples;Min_cycle;Max_cycle;Signal;HPM_P1;HPM_P2
2022/07/11 00:02:01;;;;;;;0.00;0.00;;;;;;;;;;5095268;28;20040;-87
2022/07/11 00:04:27;;;;;;;0.00;0.00;;;;;;;;;;5095511;28;20039;-87
2022/07/11 00:06:53;;;;;;;0.00;0.00;;;;;;;;;;5113321;28;20119;-87
2022/07/11 00:09:19;;;;;;;0.00;0.00;;;;;;;;;;5112502;28;20156;-87
2022/07/11 00:11:45;;;;;;;0.00;0.00;;;;;;;;;;5112081;28;20119;-85
2022/07/11 00:14:12;;;;;;;0.00;0.00;;;;;;;;;;5112302;28;20137;-86
2022/07/11 00:16:38;;;;;;;0.00;0.00;;;;;;;;;;5112202;28;20055;-87
2022/07/11 00:19:05;;;;;;;0.00;0.00;;;;;;;;;;5112341;28;20196;-86
2022/07/11 00:21:31;;;;;;;0.00;0.00;;;;;;;;;;5095062;28;20478;-86
2022/07/11 00:23:57;;;;;;;0.00;0.00;;;;;;;;;;5112471;28;20070;-86
2022/07/11 00:26:23;;;;;;;0.00;0.00;;;;;;;;;;5111545;28;20499;-86
2022/07/11 00:28:49;;;;;;;0.00;0.00;;;;;;;;;;5112037;28;20075;-87
2022/07/11 00:31:15;;;;;;;0.00;0.00;;;;;;;;;;5111822;28;20074;-86
2022/07/11 00:33:41;;;;;;;0.00;0.00;;;;;;;;;;5113195;28;20035;-86
2022/07/11 00:36:07;;;;;;;0.00;0.00;;;;;;;;;;5111812;28;20047;-87
2022/07/11 00:38:33;;;;;;;0.00;0.00;;;;;;;;;;5111833;28;20126;-86
2022/07/11 00:40:59;;;;;;;0.00;0.00;;;;;;;;;;5112160;28;20480;-87
2022/07/11 00:43:32;;;;;;;0.00;0.00;;;;;;;;;;5111759;28;20043;-86
2022/07/11 00:45:58;;;;;;;0.00;0.00;;;;;;;;;;5113278;28;20040;-87
2022/07/11 00:48:24;;;;;;;0.00;0.00;;;;;;;;;;5114941;28;20482;-86
2022/07/11 00:50:50;;;;;;;0.00;0.00;;;;;;;;;;5115819;28;20046;-87
2022/07/11 00:53:18;;;;;;;0.00;0.00;;;;;;;;;;5117269;28;20032;-85
2022/07/11 00:55:44;;;;;;;0.00;0.00;;;;;;;;;;5115838;28;20047;-86
2022/07/11 00:58:10;;;;;;;0.00;0.00;;;;;;;;;;5116960;28;20035;-88
2022/07/11 01:00:36;;;;;;;0.00;0.00;;;;;;;;;;5117223;28;20105;-87
2022/07/11 01:03:02;;;;;;;0.00;0.00;;;;;;;;;;5115536;28;20035;-88
2022/07/11 01:05:28;;;;;;;0.00;0.00;;;;;;;;;;5117044;28;20093;-87
2022/07/11 01:07:55;;;;;;;0.00;0.00;;;;;;;;;;5115448;28;20398;-87
2022/07/11 01:10:21;;;;;;;0.00;0.00;;;;;;;;;;5098830;28;20069;-88
2022/07/11 01:12:47;;;;;;;0.00;0.00;;;;;;;;;;5098398;28;20067;-88
2022/07/11 01:15:14;;;;;;;0.10;0.10;;;;;;;;;;5115570;28;20398;-86
2022/07/11 01:17:40;;;;;;;0.00;0.00;;;;;;;;;;5115240;28;20059;-87
2022/07/11 01:20:07;;;;;;;0.00;0.00;;;;;;;;;;5115272;28;20096;-87
2022/07/11 01:22:36;;;;;;;0.00;0.00;;;;;;;;;;5115451;28;20058;-86
2022/07/11 01:25:02;;;;;;;0.00;0.00;;;;;;;;;;5115052;28;20063;-88
2022/07/11 01:27:29;;;;;;;0.00;0.00;;;;;;;;;;5116441;28;20086;-86
2022/07/11 01:29:55;;;;;;;0.00;0.00;;;;;;;;;;5115187;28;20036;-88
2022/07/11 01:32:22;;;;;;;0.00;0.00;;;;;;;;;;5114878;28;20168;-87
2022/07/11 01:34:48;;;;;;;0.00;0.00;;;;;;;;;;5098656;28;20433;-86
2022/07/11 01:37:14;;;;;;;0.00;0.00;;;;;;;;;;5115181;28;20047;-85
2022/07/11 01:39:40;;;;;;;0.00;0.00;;;;;;;;;;5114934;28;20505;-86
2022/07/11 01:42:06;;;;;;;0.00;0.00;;;;;;;;;;5114822;28;20055;-87
2022/07/11 01:44:32;;;;;;;0.00;0.00;;;;;;;;;;5115213;28;20047;-87
2022/07/11 01:46:58;;;;;;;0.00;0.00;;;;;;;;;;5114597;28;20489;-86
2022/07/11 01:49:29;;;;;;;0.00;0.00;;;;;;;;;;5114864;28;20082;-86
2022/07/11 01:51:55;;;;;;;0.00;0.00;;;;;;;;;;5114692;28;20049;-85
2022/07/11 01:54:21;;;;;;;0.00;0.00;;;;;;;;;;5115061;28;20040;-86
2022/07/11 01:56:47;;;;;;;0.00;0.00;;;;;;;;;;5114667;28;20069;-86
2022/07/11 01:59:13;;;;;;;0.00;0.00;;;;;;;;;;5113947;28;20145;-86
2022/07/11 02:01:39;;;;;;;0.00;0.00;;;;;;;;;;5114483;28;20044;-87
2022/07/11 02:04:05;;;;;;;0.00;0.00;;;;;;;;;;5097427;28;20104;-86
2022/07/11 02:06:32;;;;;;;0.00;0.00;;;;;;;;;;5114608;28;20035;-86
2022/07/11 02:08:58;;;;;;;0.00;0.00;;;;;;;;;;5114392;28;20088;-86
2022/07/11 02:11:24;;;;;;;0.00;0.00;;;;;;;;;;5114319;28;20126;-87
2022/07/11 02:13:50;;;;;;;0.00;0.00;;;;;;;;;;5097137;28;20035;-87
2022/07/11 02:16:18;;;;;;;0.00;0.00;;;;;;;;;;5114266;28;20486;-87
2022/07/11 02:18:43;;;;;;;0.00;0.00;;;;;;;;;;5114352;28;20494;-87
2022/07/11 02:21:12;;;;;;;0.00;0.00;;;;;;;;;;5114419;28;20051;-86
2022/07/11 02:23:38;;;;;;;0.00;0.00;;;;;;;;;;5115528;28;20114;-87
2022/07/11 02:26:04;;;;;;;0.00;0.00;;;;;;;;;;5114021;28;20471;-88
2022/07/11 02:28:30;;;;;;;0.00;0.00;;;;;;;;;;5113891;28;20040;-87
2022/07/11 02:30:56;;;;;;;0.00;0.00;;;;;;;;;;5115177;28;20039;-88
2022/07/11 02:33:22;;;;;;;0.00;0.00;;;;;;;;;;5113911;28;20479;-88
2022/07/11 02:35:48;;;;;;;0.00;0.00;;;;;;;;;;5114132;28;20043;-88
2022/07/11 02:38:15;;;;;;;0.00;0.00;;;;;;;;;;5113714;28;20086;-88
2022/07/11 02:40:41;;;;;;;0.00;0.00;;;;;;;;;;5113928;28;20035;-88
2022/07/11 02:43:07;;;;;;;0.00;0.00;;;;;;;;;;5113812;28;20047;-86
2022/07/11 02:45:33;;;;;;;0.00;0.00;;;;;;;;;;5113923;28;20536;-89
2022/07/11 02:47:59;;;;;;;0.00;0.00;;;;;;;;;;5113409;28;20081;-87
2022/07/11 02:50:25;;;;;;;0.00;0.00;;;;;;;;;;5113683;28;20418;-88
2022/07/11 02:52:51;;;;;;;0.00;0.00;;;;;;;;;;5113425;28;20043;-87
2022/07/11 02:55:18;;;;;;;0.00;0.00;;;;;;;;;;5113517;28;20196;-87
2022/07/11 02:57:44;;;;;;;0.00;0.00;;;;;;;;;;5113313;28;20055;-88
2022/07/11 03:00:12;;;;;;;0.00;0.00;;;;;;;;;;5113660;28;20048;-88
2022/07/11 03:02:38;;;;;;;0.00;0.00;;;;;;;;;;5113493;28;20051;-86
2022/07/11 03:05:04;;;;;;;0.00;0.00;;;;;;;;;;5113532;28;20054;-87
2022/07/11 03:07:30;;;;;;;0.00;0.00;;;;;;;;;;5096326;28;20124;-86
2022/07/11 03:09:56;;;;;;;0.00;0.00;;;;;;;;;;5112250;28;20069;-86
2022/07/11 03:12:22;;;;;;;0.00;0.00;;;;;;;;;;5113148;28;20039;-87
2022/07/11 03:14:48;;;;;;;0.00;0.00;;;;;;;;;;5112992;28;20122;-87
2022/07/11 03:17:14;;;;;;;0.00;0.00;;;;;;;;;;5113068;28;20447;-85
2022/07/11 03:19:40;;;;;;;0.00;0.00;;;;;;;;;;5112798;28;20050;-87
2022/07/11 03:22:06;;;;;;;0.00;0.00;;;;;;;;;;5096040;28;20413;-86
2022/07/11 03:24:32;;;;;;;0.00;0.00;;;;;;;;;;5112795;28;20044;-86
2022/07/11 03:26:58;;;;;;;0.00;0.00;;;;;;;;;;5112914;28;20054;-86
2022/07/11 03:29:24;;;;;;;0.00;0.00;;;;;;;;;;5112665;28;20520;-86
2022/07/11 03:31:50;;;;;;;0.00;0.00;;;;;;;;;;5112923;28;20047;-86
2022/07/11 03:34:16;;;;;;;0.00;0.00;;;;;;;;;;5113932;28;20390;-86
2022/07/11 03:36:42;;;;;;;0.00;0.00;;;;;;;;;;5112846;28;20043;-85
2022/07/11 03:39:08;;;;;;;0.00;0.00;;;;;;;;;;5112600;28;20050;-85
2022/07/11 03:41:34;;;;;;;0.00;0.00;;;;;;;;;;5112583;28;20402;-85
2022/07/11 03:44:00;;;;;;;0.00;0.00;;;;;;;;;;5112362;28;20043;-87
2022/07/11 03:46:26;;;;;;;0.00;0.00;;;;;;;;;;5112419;28;20047;-87
2022/07/11 03:48:52;;;;;;;0.00;0.00;;;;;;;;;;5095335;28;20103;-87
2022/07/11 03:51:18;;;;;;;0.00;0.00;;;;;;;;;;5112602;28;20035;-87
2022/07/11 03:53:44;;;;;;;0.00;0.00;;;;;;;;;;5113643;28;20097;-86
2022/07/11 03:56:10;;;;;;;0.00;0.00;;;;;;;;;;5112373;28;20048;-87
2022/07/11 03:58:36;;;;;;;0.00;0.00;;;;;;;;;;5112135;28;20049;-87
2022/07/11 04:01:02;;;;;;;0.00;0.00;;;;;;;;;;5112203;28;20428;-86
2022/07/11 04:03:28;;;;;;;0.00;0.00;;;;;;;;;;5095634;28;20046;-88
2022/07/11 04:05:54;;;;;;;0.00;0.00;;;;;;;;;;5095266;28;20043;-88
2022/07/11 04:08:20;;;;;;;0.00;0.00;;;;;;;;;;5111995;28;20043;-87
2022/07/11 04:10:46;;;;;;;0.00;0.00;;;;;;;;;;5112162;28;20039;-87
2022/07/11 04:13:12;;;;;;;0.00;0.00;;;;;;;;;;5112153;28;20114;-87
2022/07/11 04:15:38;;;;;;;0.00;0.00;;;;;;;;;;5111931;28;20479;-84
2022/07/11 04:18:04;;;;;;;0.00;0.00;;;;;;;;;;5112290;28;20048;-87
2022/07/11 04:20:30;;;;;;;0.00;0.00;;;;;;;;;;5111602;28;20122;-86
2022/07/11 04:22:56;;;;;;;0.00;0.00;;;;;;;;;;5112154;28;20036;-87
2022/07/11 04:25:22;;;;;;;0.00;0.00;;;;;;;;;;5111473;28;20059;-88
2022/07/11 04:27:48;;;;;;;0.00;0.00;;;;;;;;;;5095019;28;20040;-87
2022/07/11 04:30:14;;;;;;;0.00;0.00;;;;;;;;;;5111777;28;20039;-86
2022/07/11 04:32:40;;;;;;;0.00;0.00;;;;;;;;;;5113487;28;20032;-87
2022/07/11 04:35:06;;;;;;;0.00;0.00;;;;;;;;;;5111899;28;20404;-86
2022/07/11 04:37:32;;;;;;;0.00;0.00;;;;;;;;;;5113195;28;20036;-87
2022/07/11 04:39:58;;;;;;;0.00;0.00;;;;;;;;;;5111578;28;20050;-86
2022/07/11 04:42:24;;;;;;;0.00;0.00;;;;;;;;;;5111947;28;20048;-86
2022/07/11 04:44:50;;;;;;;0.00;0.00;;;;;;;;;;5112000;28;20173;-87
2022/07/11 04:47:16;;;;;;;0.00;0.00;;;;;;;;;;5111824;28;20122;-86
2022/07/11 04:49:46;;;;;;;0.00;0.00;;;;;;;;;;5111786;28;20073;-87
2022/07/11 04:52:12;;;;;;;0.00;0.00;;;;;;;;;;5111989;28;20196;-87
2022/07/11 04:54:38;;;;;;;0.00;0.00;;;;;;;;;;5111675;28;20045;-86
2022/07/11 04:57:04;;;;;;;0.00;0.00;;;;;;;;;;5112116;28;20051;-85
2022/07/11 04:59:30;;;;;;;0.00;0.00;;;;;;;;;;5111727;28;20382;-87
2022/07/11 05:01:56;;;;;;;0.00;0.00;;;;;;;;;;5111688;28;20085;-87
2022/07/11 05:04:23;;;;;;;0.00;0.00;;;;;;;;;;5111884;28;20051;-86
2022/07/11 05:06:49;;;;;;;0.00;0.00;;;;;;;;;;5111681;28;20051;-86
2022/07/11 05:09:15;;;;;;;0.00;0.00;;;;;;;;;;5112836;28;20489;-86
2022/07/11 05:11:41;;;;;;;0.00;0.00;;;;;;;;;;5111525;28;20035;-87
2022/07/11 05:14:07;;;;;;;0.00;0.00;;;;;;;;;;5111686;28;20054;-86
2022/07/11 05:16:33;;;;;;;0.00;0.00;;;;;;;;;;5111618;28;20043;-87
2022/07/11 05:18:59;;;;;;;0.00;0.00;;;;;;;;;;5111362;28;20047;-86
2022/07/11 05:21:25;;;;;;;0.00;0.00;;;;;;;;;;5111481;28;20367;-86
2022/07/11 05:23:51;;;;;;;0.00;0.00;;;;;;;;;;5111700;28;20035;-86
2022/07/11 05:26:17;;;;;;;0.00;0.00;;;;;;;;;;5111165;28;20058;-86
2022/07/11 05:28:43;;;;;;;0.00;0.00;;;;;;;;;;5112969;28;20036;-87
2022/07/11 05:31:10;;;;;;;0.00;0.00;;;;;;;;;;5111180;28;20489;-86
2022/07/11 05:33:36;;;;;;;0.00;0.00;;;;;;;;;;5113152;28;20045;-86
2022/07/11 05:36:02;;;;;;;0.00;0.00;;;;;;;;;;5114787;28;20122;-88
2022/07/11 05:38:29;;;;;;;0.00;0.00;;;;;;;;;;5115381;28;20142;-87
2022/07/11 05:40:55;;;;;;;0.00;0.00;;;;;;;;;;5116231;28;20088;-85
2022/07/11 05:43:23;;;;;;;0.00;0.00;;;;;;;;;;5114972;28;20039;-87
2022/07/11 05:45:49;;;;;;;0.00;0.00;;;;;;;;;;5114966;28;20085;-85
2022/07/11 05:48:15;;;;;;;0.00;0.00;;;;;;;;;;5115058;28;20039;-86
2022/07/11 05:50:41;;;;;;;0.00;0.00;;;;;;;;;;5114581;28;20035;-86
2022/07/11 05:53:07;;;;;;;0.00;0.00;;;;;;;;;;5115034;28;20039;-86
2022/07/11 05:55:33;;;;;;;0.00;0.00;;;;;;;;;;5114756;28;20382;-86
2022/07/11 05:58:00;;;;;;;0.00;0.00;;;;;;;;;;5097787;28;20047;-85
2022/07/11 06:00:27;;;;;;;0.00;0.00;;;;;;;;;;5097284;28;20047;-86
2022/07/11 06:02:53;;;;;;;0.00;0.00;;;;;;;;;;5114646;28;20040;-86
2022/07/11 06:05:19;;;;;;;0.00;0.00;;;;;;;;;;5114280;28;20127;-87
2022/07/11 06:10:34;;;;;;;0.00;0.00;;;;;;;;;;5083719;28;20035;-85
2022/07/11 06:13:00;;;;;;;0.00;0.00;;;;;;;;;;5114376;28;20036;-85
2022/07/11 06:15:27;;;;;;;0.00;0.00;;;;;;;;;;5115363;28;20043;-86
2022/07/11 06:17:53;;;;;;;0.00;0.00;;;;;;;;;;5114200;28;20135;-87
2022/07/11 06:20:19;;;;;;;0.00;0.00;;;;;;;;;;5114016;28;20118;-88
2022/07/11 06:22:45;;;;;;;0.00;0.00;;;;;;;;;;5115613;28;20039;-87
2022/07/11 06:25:11;;;;;;;0.00;0.00;;;;;;;;;;5096765;28;20061;-86
2022/07/11 06:27:37;;;;;;;0.00;0.00;;;;;;;;;;5114156;28;20071;-86
2022/07/11 06:30:03;;;;;;;0.00;0.00;;;;;;;;;;5114034;28;20039;-86
2022/07/11 06:32:31;;;;;;;0.00;0.00;;;;;;;;;;5114086;28;20042;-88
2022/07/11 06:34:57;;;;;;;0.00;0.00;;;;;;;;;;5113850;28;20092;-84
2022/07/11 06:37:23;;;;;;;0.00;0.00;;;;;;;;;;5114142;28;20049;-85
2022/07/11 06:39:49;;;;;;;0.00;0.00;;;;;;;;;;5115033;28;20166;-87
2022/07/11 06:42:15;;;;;;;0.00;0.00;;;;;;;;;;5114012;28;20043;-85
2022/07/11 06:44:41;;;;;;;0.00;0.00;;;;;;;;;;5113831;28;20087;-85
2022/07/11 06:47:07;;;;;;;0.00;0.00;;;;;;;;;;5107993;28;20036;-86
2022/07/11 06:49:33;;;;;;;0.00;0.00;;;;;;;;;;5093070;28;20070;-89
2022/07/11 06:51:59;;;;;;;0.00;0.00;;;;;;;;;;5094023;28;20043;-91
2022/07/11 06:54:25;;;;;;;0.00;0.00;;;;;;;;;;5093133;28;20032;-86
2022/07/11 06:56:51;;;;;;;0.00;0.00;;;;;;;;;;5097633;28;20051;-89
2022/07/11 06:59:17;;;;;;;0.00;0.00;;;;;;;;;;5104383;28;20105;-90
2022/07/11 07:01:43;;;;;;;0.00;0.00;;;;;;;;;;5114828;28;20050;-91
2022/07/11 07:04:09;;;;;;;0.00;0.00;;;;;;;;;;5096722;28;20069;-90
2022/07/11 07:06:35;;;;;;;0.00;0.00;;;;;;;;;;5107018;28;20402;-89
2022/07/11 07:09:03;;;;;;;0.00;0.00;;;;;;;;;;5106138;28;20039;-90
2022/07/11 07:11:29;;;;;;;0.00;0.00;;;;;;;;;;5097051;28;20048;-90
2022/07/11 07:13:55;;;;;;;0.00;0.00;;;;;;;;;;5093299;28;20082;-90
2022/07/11 07:16:20;;;;;;;0.00;0.00;;;;;;;;;;5078641;28;20052;-90
2022/07/11 07:18:48;;;;;;;0.00;0.00;;;;;;;;;;5092486;28;20047;-89
2022/07/11 07:21:14;;;;;;;0.00;0.00;;;;;;;;;;5075356;28;20101;-90
2022/07/11 07:23:40;;;;;;;0.00;0.00;;;;;;;;;;5092473;28;20047;-89
2022/07/11 07:26:06;;;;;;;0.00;0.00;;;;;;;;;;5074858;28;20181;-90
2022/07/11 07:28:32;;;;;;;0.00;0.00;;;;;;;;;;5092237;28;20047;-90
2022/07/11 07:30:59;;;;;;;0.00;0.00;;;;;;;;;;5092136;28;20363;-92
2022/07/11 07:33:25;;;;;;;0.00;0.00;;;;;;;;;;5094578;28;20032;-89
2022/07/11 07:35:51;;;;;;;0.00;0.00;;;;;;;;;;5112960;28;20046;-85
2022/07/11 07:38:17;;;;;;;0.00;0.00;;;;;;;;;;5112025;28;20535;-87
2022/07/11 07:40:43;;;;;;;0.00;0.00;;;;;;;;;;5112400;28;20096;-84
2022/07/11 07:43:10;;;;;;;0.00;0.00;;;;;;;;;;5112554;28;20047;-84
2022/07/11 07:45:36;;;;;;;0.00;0.00;;;;;;;;;;5113854;28;20036;-85
2022/07/11 07:48:02;;;;;;;0.00;0.00;;;;;;;;;;5112629;28;20394;-85
2022/07/11 07:50:28;;;;;;;0.00;0.00;;;;;;;;;;5112429;28;20047;-86
2022/07/11 07:52:54;;;;;;;0.00;0.00;;;;;;;;;;5112715;28;20082;-85
2022/07/11 07:55:20;;;;;;;0.00;0.00;;;;;;;;;;5112310;28;20149;-84
2022/07/11 07:57:46;;;;;;;0.00;0.00;;;;;;;;;;5111948;28;20043;-84
2022/07/11 08:03:03;;;;;;;0.00;0.00;;;;;;;;;;5113637;28;20074;-85
2022/07/11 08:05:29;;;;;;;0.00;0.00;;;;;;;;;;5112327;28;20358;-85
2022/07/11 08:07:55;;;;;;;0.00;0.00;;;;;;;;;;5112074;28;20043;-84
2022/07/11 08:10:21;;;;;;;0.00;0.00;;;;;;;;;;5112410;28;20050;-85
2022/07/11 08:12:47;;;;;;;0.00;0.00;;;;;;;;;;5113600;28;20506;-85
2022/07/11 08:15:13;;;;;;;0.00;0.00;;;;;;;;;;5095186;28;20040;-84
2022/07/11 08:17:41;;;;;;;0.00;0.00;;;;;;;;;;5112005;28;20067;-85
2022/07/11 08:20:07;;;;;;;0.00;0.00;;;;;;;;;;5112149;28;20043;-85
2022/07/11 08:22:33;;;;;;;0.00;0.00;;;;;;;;;;5113154;28;20126;-86
2022/07/11 08:24:59;;;;;;;0.00;0.00;;;;;;;;;;5111855;28;20494;-85
2022/07/11 08:27:25;;;;;;;0.00;0.00;;;;;;;;;;5094847;28;20560;-85
2022/07/11 08:29:51;;;;;;;0.00;0.00;;;;;;;;;;5112224;28;20079;-85
2022/07/11 08:32:17;;;;;;;0.00;0.00;;;;;;;;;;5113389;28;20467;-86
2022/07/11 08:34:43;;;;;;;0.00;0.00;;;;;;;;;;5112180;28;20078;-85
2022/07/11 08:37:09;;;;;;;0.00;0.00;;;;;;;;;;5111888;28;20043;-85
2022/07/11 08:39:35;;;;;;;0.00;0.00;;;;;;;;;;5111877;28;20036;-85
2022/07/11 08:42:01;;;;;;;0.00;0.00;;;;;;;;;;5111937;28;20044;-85
2022/07/11 08:44:27;;;;;;;0.00;0.00;;;;;;;;;;5111947;28;20478;-85
2022/07/11 08:46:54;;;;;;;0.00;0.00;;;;;;;;;;5111593;28;20039;-86
2022/07/11 08:49:20;;;;;;;0.00;0.00;;;;;;;;;;5111883;28;20075;-83
2022/07/11 08:51:47;;;;;;;0.00;0.00;;;;;;;;;;5111590;28;20494;-84
2022/07/11 08:54:13;;;;;;;0.00;0.00;;;;;;;;;;5112001;28;20040;-83
2022/07/11 08:56:39;;;;;;;0.00;0.00;;;;;;;;;;5113106;28;20115;-83
2022/07/11 08:59:05;;;;;;;0.00;0.00;;;;;;;;;;5111889;28;20524;-83
2022/07/11 09:01:34;;;;;;;0.00;0.00;;;;;;;;;;5094793;28;20149;-83
2022/07/11 09:04:00;;;;;;;0.00;0.00;;;;;;;;;;5111923;28;20050;-84
2022/07/11 09:06:27;;;;;;;0.00;0.00;;;;;;;;;;5111317;28;20044;-84
2022/07/11 09:08:56;;;;;;;0.00;0.00;;;;;;;;;;5113951;28;20047;-84
2022/07/11 09:11:22;;;;;;;0.00;0.00;;;;;;;;;;5115362;28;20047;-83
2022/07/11 09:13:48;;;;;;;0.00;0.00;;;;;;;;;;5116104;28;20046;-83
2022/07/11 09:16:17;;;;;;;0.00;0.00;;;;;;;;;;5115557;28;20043;-83
2022/07/11 09:18:43;;;;;;;0.00;0.00;;;;;;;;;;5115617;28;20043;-84
2022/07/11 09:26:43;;;;;;;0.00;0.00;;;;;;;;;;5116217;28;20052;-84
2022/07/11 09:29:10;;;;;;;0.00;0.00;;;;;;;;;;5116876;28;20447;-82
2022/07/11 09:31:36;;;;;;;0.00;0.00;;;;;;;;;;5115336;28;20039;-85
2022/07/11 09:34:04;;;;;;;0.00;0.00;;;;;;;;;;5116704;28;20047;-84
2022/07/11 09:36:54;;;;;;;0.00;0.00;;;;;;;;;;5115177;28;20035;-83
2022/07/11 09:39:24;;;;;;;0.00;0.00;;;;;;;;;;5098368;28;20559;-87
2022/07/11 09:41:51;;;;;;;0.00;0.00;;;;;;;;;;5115016;28;20126;-84
2022/07/11 09:44:20;;;;;;;0.00;0.00;;;;;;;;;;5115321;28;20452;-86
2022/07/11 09:46:48;;;;;;;0.00;0.00;;;;;;;;;;5114741;28;20047;-89
2022/07/11 09:49:15;;;;;;;0.00;0.00;;;;;;;;;;5115310;28;20051;-87
2022/07/11 09:51:41;;;;;;;0.00;0.00;;;;;;;;;;5114772;28;20039;-88
2022/07/11 09:54:08;;;;;;;0.00;0.00;;;;;;;;;;5114936;28;20043;-88
2022/07/11 09:56:40;;;;;;;0.00;0.00;;;;;;;;;;5114963;28;20390;-87
2022/07/11 09:59:07;;;;;;;0.00;0.00;;;;;;;;;;5094792;28;20433;-85
2022/07/11 10:01:36;;;;;;;0.00;0.00;;;;;;;;;;5094841;28;20509;-89
2022/07/11 10:04:02;;;;;;;0.00;0.00;;;;;;;;;;5095133;28;20047;-88
2022/07/11 10:06:28;;;;;;;0.00;0.00;;;;;;;;;;5094674;28;20067;-86
2022/07/11 10:08:54;;;;;;;0.00;0.00;;;;;;;;;;5093947;28;20040;-86
2022/07/11 10:11:21;;;;;;;0.00;0.00;;;;;;;;;;5095465;28;20123;-85
2022/07/11 10:13:48;;;;;;;0.00;0.00;;;;;;;;;;5093750;28;20066;-86
2022/07/11 10:16:33;;;;;;;0.00;0.00;;;;;;;;;;5077741;28;20432;-83
2022/07/11 10:19:22;;;;;;;0.00;0.00;;;;;;;;;;5093835;28;20072;-86
2022/07/11 10:22:03;;;;;;;0.00;0.00;;;;;;;;;;5094029;28;20067;-84
2022/07/11 10:24:34;;;;;;;0.00;0.00;;;;;;;;;;5093910;28;20036;-86
2022/07/11 10:27:08;;;;;;;0.00;0.00;;;;;;;;;;5093836;28;20050;-85
2022/07/11 10:29:49;;;;;;;0.00;0.00;;;;;;;;;;5093736;28;20050;-86
2022/07/11 10:32:16;;;;;;;0.00;0.00;;;;;;;;;;5075493;28;20075;-86
2022/07/11 10:34:42;;;;;;;0.00;0.00;;;;;;;;;;5093911;28;20040;-86
2022/07/11 10:37:09;;;;;;;0.00;0.00;;;;;;;;;;5093358;28;20040;-84
2022/07/11 10:39:35;;;;;;;0.00;0.00;;;;;;;;;;5093372;28;20050;-86
2022/07/11 10:42:03;;;;;;;0.00;0.00;;;;;;;;;;5094681;28;20459;-85
2022/07/11 10:44:48;;;;;;;0.00;0.00;;;;;;;;;;5076666;28;20097;-86
2022/07/11 10:47:35;;;;;;;0.00;0.00;;;;;;;;;;5093379;28;20040;-85
2022/07/11 10:50:05;;;;;;;0.00;0.00;;;;;;;;;;5094716;28;20040;-86
2022/07/11 10:52:32;;;;;;;0.00;0.00;;;;;;;;;;5076089;28;20505;-85
2022/07/11 10:55:04;;;;;;;0.00;0.00;;;;;;;;;;5093138;28;20043;-85
2022/07/11 10:57:42;;;;;;;0.00;0.00;;;;;;;;;;5092972;28;20363;-86
2022/07/11 11:00:10;;;;;;;0.00;0.00;;;;;;;;;;5093564;28;20483;-85
2022/07/11 11:02:56;;;;;;;0.00;0.00;;;;;;;;;;5092833;28;20459;-85
2022/07/11 11:05:40;;;;;;;0.00;0.00;;;;;;;;;;5094190;28;20059;-89
2022/07/11 11:08:25;;;;;;;0.00;0.00;;;;;;;;;;5092726;28;20036;-87
2022/07/11 11:10:51;;;;;;;0.00;0.00;;;;;;;;;;5092906;28;20144;-86
2022/07/11 11:13:19;;;;;;;0.00;0.00;;;;;;;;;;5092685;28;20036;-86
2022/07/11 11:15:47;;;;;;;0.00;0.00;;;;;;;;;;5094144;28;20073;-86
2022/07/11 11:18:25;;;;;;;0.00;0.00;;;;;;;;;;5092710;28;20039;-86
2022/07/11 11:21:04;;;;;;;0.00;0.00;;;;;;;;;;5092804;28;20486;-85
2022/07/11 11:23:35;;;;;;;0.00;0.00;;;;;;;;;;5092565;28;20051;-85
2022/07/11 11:26:08;;;;;;;0.00;0.00;;;;;;;;;;5075573;28;20503;-86
2022/07/11 11:28:34;;;;;;;0.00;0.00;;;;;;;;;;5075484;28;20051;-86
2022/07/11 11:31:02;;;;;;;0.00;0.00;;;;;;;;;;5091651;28;20039;-86
2022/07/11 11:33:29;;;;;;;0.00;0.00;;;;;;;;;;5092107;28;20051;-86
2022/07/11 11:36:02;;;;;;;0.00;0.00;;;;;;;;;;5092602;28;20048;-87
2022/07/11 11:38:29;;;;;;;0.00;0.00;;;;;;;;;;5094843;28;20200;-86
2022/07/11 11:40:56;;;;;;;0.00;0.00;;;;;;;;;;5113945;28;20043;-88
2022/07/11 11:43:22;;;;;;;0.00;0.00;;;;;;;;;;5112807;28;20062;-87
2022/07/11 11:45:49;;;;;;;0.00;0.00;;;;;;;;;;5095587;28;20044;-87
2022/07/11 11:48:34;;;;;;;0.00;0.00;;;;;;;;;;5112473;28;20050;-88
2022/07/11 11:51:08;;;;;;;0.00;0.00;;;;;;;;;;5112606;28;20032;-86
2022/07/11 11:53:44;;;;;;;0.00;0.00;;;;;;;;;;5112343;28;20039;-87
2022/07/11 11:56:22;;;;;;;0.00;0.00;;;;;;;;;;5113960;28;20049;-86
2022/07/11 11:58:49;;;;;;;0.00;0.00;;;;;;;;;;5112268;28;20036;-86
2022/07/11 12:01:19;;;;;;;0.00;0.00;;;;;;;;;;5110694;28;20040;-87
2022/07/11 12:03:49;;;;;;;0.00;0.00;;;;;;;;;;5112335;28;20368;-88
2022/07/11 12:06:15;;;;;;;0.00;0.00;;;;;;;;;;5112460;28;20042;-87
2022/07/11 12:08:41;;;;;;;0.00;0.00;;;;;;;;;;5112095;28;20039;-86
2022/07/11 12:11:12;;;;;;;0.00;0.00;;;;;;;;;;5112288;28;20031;-87
2022/07/11 12:13:38;;;;;;;0.00;0.00;;;;;;;;;;5112360;28;20058;-85
2022/07/11 12:18:56;;;;;;;0.00;0.00;;;;;;;;;;5113415;28;20043;-85
2022/07/11 12:21:22;;;;;;;0.00;0.00;;;;;;;;;;5094912;28;20039;-86
2022/07/11 12:23:48;;;;;;;0.00;0.00;;;;;;;;;;5111814;28;20043;-85
2022/07/11 12:26:14;;;;;;;0.00;0.00;;;;;;;;;;5111833;28;20051;-86
2022/07/11 12:28:59;;;;;;;0.00;0.00;;;;;;;;;;5113085;28;20040;-86
2022/07/11 12:31:25;;;;;;;0.00;0.00;;;;;;;;;;5111950;28;20042;-86
2022/07/11 12:33:52;;;;;;;0.00;0.00;;;;;;;;;;5094866;28;20035;-85
2022/07/11 12:36:18;;;;;;;0.00;0.00;;;;;;;;;;5111852;28;20047;-86
2022/07/11 12:38:53;;;;;;;0.00;0.00;;;;;;;;;;5111762;28;20043;-85
2022/07/11 12:41:20;;;;;;;0.00;0.00;;;;;;;;;;5112100;28;20122;-85
2022/07/11 12:46:38;;;;;;;0.00;0.00;;;;;;;;;;5116003;28;20047;-85
2022/07/11 12:49:05;;;;;;;0.00;0.00;;;;;;;;;;5116255;28;20511;-86
2022/07/11 12:51:35;;;;;;;0.00;0.00;;;;;;;;;;5116122;28;20039;-86
2022/07/11 12:54:02;;;;;;;0.00;0.00;;;;;;;;;;5114801;28;20039;-86
2022/07/11 12:56:28;;;;;;;0.00;0.00;;;;;;;;;;5116101;28;20132;-87
2022/07/11 12:58:54;;;;;;;0.00;0.00;;;;;;;;;;5115721;28;20059;-85
2022/07/11 13:01:20;;;;;;;0.00;0.00;;;;;;;;;;5117108;27;20043;-86
2022/07/11 13:03:46;;;;;;;0.00;0.00;;;;;;;;;;5115531;28;20040;-87
2022/07/11 13:06:12;;;;;;;0.00;0.00;;;;;;;;;;5117055;28;20040;-85
2022/07/11 13:08:45;;;;;;;0.00;0.00;;;;;;;;;;5115692;28;20046;-85
2022/07/11 13:11:24;;;;;;;0.00;0.00;;;;;;;;;;5115849;28;20075;-87
2022/07/11 13:13:50;;;;;;;0.00;0.00;;;;;;;;;;5114494;28;20074;-87
2022/07/11 13:16:17;;;;;;;0.00;0.00;;;;;;;;;;5115681;28;20044;-85
2022/07/11 13:18:43;;;;;;;0.00;0.00;;;;;;;;;;5115623;28;20091;-84
2022/07/11 13:21:09;;;;;;;0.00;0.00;;;;;;;;;;5115214;28;20035;-86
2022/07/11 13:23:36;;;;;;;0.00;0.00;;;;;;;;;;5098435;28;20050;-85
2022/07/11 13:26:02;;;;;;;0.00;0.00;;;;;;;;;;5115009;28;20066;-85
2022/07/11 13:28:28;;;;;;;0.00;0.00;;;;;;;;;;5115561;28;20071;-86
2022/07/11 13:30:55;;;;;;;0.00;0.00;;;;;;;;;;5114941;28;20043;-86
2022/07/11 13:33:21;;;;;;;0.00;0.00;;;;;;;;;;5115423;28;20058;-86
2022/07/11 13:35:48;;;;;;;0.00;0.00;;;;;;;;;;5097924;28;20071;-86
2022/07/11 13:38:14;;;;;;;0.00;0.00;;;;;;;;;;5115102;28;20078;-86
2022/07/11 13:40:40;;;;;;;0.00;0.00;;;;;;;;;;5097786;28;20039;-86
2022/07/11 13:43:06;;;;;;;0.00;0.00;;;;;;;;;;5115341;28;20042;-85
2022/07/11 13:45:33;;;;;;;0.00;0.00;;;;;;;;;;5114768;28;20039;-87
2022/07/11 13:47:59;;;;;;;0.00;0.00;;;;;;;;;;5115170;28;20160;-86
2022/07/11 13:50:25;;;;;;;0.00;0.00;;;;;;;;;;5114746;28;20047;-87
2022/07/11 13:52:51;;;;;;;0.00;0.00;;;;;;;;;;5115066;28;20090;-86
2022/07/11 13:55:18;;;;;;;0.00;0.00;;;;;;;;;;5114114;28;20387;-85
2022/07/11 13:57:44;;;;;;;0.00;0.00;;;;;;;;;;5097670;28;20047;-86
2022/07/11 14:00:10;;;;;;;0.00;0.00;;;;;;;;;;5114395;28;20122;-85
2022/07/11 14:02:36;;;;;;;0.00;0.00;;;;;;;;;;5114680;28;20050;-85
2022/07/11 14:05:03;;;;;;;0.00;0.00;;;;;;;;;;5114795;28;20039;-85
2022/07/11 14:07:29;;;;;;;0.00;0.00;;;;;;;;;;5114623;28;20075;-84
2022/07/11 14:09:55;;;;;;;0.00;0.00;;;;;;;;;;5115652;27;20053;-86
2022/07/11 14:12:21;;;;;;;0.00;0.00;;;;;;;;;;5114782;28;20051;-86
2022/07/11 14:14:47;;;;;;;0.00;0.00;;;;;;;;;;5114214;28;20040;-84
2022/07/11 14:17:13;;;;;;;0.00;0.00;;;;;;;;;;5115811;28;20375;-85
2022/07/11 14:19:40;;;;;;;0.00;0.00;;;;;;;;;;5114044;28;20047;-87
2022/07/11 14:22:06;;;;;;;0.00;0.00;;;;;;;;;;5115838;28;20081;-86
2022/07/11 14:24:32;;;;;;;0.00;0.00;;;;;;;;;;5114111;28;20036;-86
2022/07/11 14:26:59;;;;;;;0.00;0.00;;;;;;;;;;5114142;28;20448;-86
2022/07/11 14:29:25;;;;;;;0.00;0.00;;;;;;;;;;5114096;28;20134;-86
2022/07/11 14:31:54;;;;;;;0.00;0.00;;;;;;;;;;5113751;28;20047;-84
2022/07/11 14:34:24;;;;;;;0.00;0.00;;;;;;;;;;5114181;28;20032;-86
2022/07/11 14:36:50;;;;;;;0.00;0.00;;;;;;;;;;5115233;28;20054;-84
2022/07/11 14:39:16;;;;;;;0.00;0.00;;;;;;;;;;5113659;28;20448;-85
2022/07/11 14:41:44;;;;;;;0.00;0.00;;;;;;;;;;5096607;28;20047;-86
2022/07/11 14:44:10;;;;;;;0.00;0.00;;;;;;;;;;5096793;28;20044;-85
2022/07/11 14:46:36;;;;;;;0.00;0.00;;;;;;;;;;5113493;28;20101;-86
2022/07/11 14:49:05;;;;;;;0.10;0.00;;;;;;;;;;5113686;28;20039;-85
2022/07/11 14:51:31;;;;;;;0.00;0.00;;;;;;;;;;5113439;28;20071;-85
2022/07/11 14:53:57;;;;;;;0.00;0.00;;;;;;;;;;5114142;28;20086;-85
2022/07/11 14:56:23;;;;;;;0.00;0.00;;;;;;;;;;5113446;28;20052;-86
2022/07/11 14:58:49;;;;;;;0.00;0.00;;;;;;;;;;5114768;28;20376;-85
2022/07/11 15:01:15;;;;;;;0.00;0.00;;;;;;;;;;5113127;28;20043;-85